sensor_id;sensor_type;location;lat;lon;timestamp;P1;durP1;ratioP1;P2;durP2;ratioP2
79135;SDS011;68533;51.090;17.216;2023-04-23T00:02:11;25.55;;;12.77;;
79135;SDS011;68533;51.090;17.216;2023-04-23T00:04:47;29.90;;;13.77;;
79135;SDS011;68533;51.090;17.216;2023-04-23T00:07:18;24.75;;;12.45;;
79135;SDS011;68533;51.090;17.216;2023-04-23T00:09:45;22.70;;;11.95;;
79135;SDS011;68533;51.090;17.216;2023-04-23T00:12:12;24.92;;;12.70;;
79135;SDS011;68533;51.090;17.216;2023-04-23T00:14:38;27.52;;;13.55;;
79135;SDS011;68533;51.090;17.216;2023-04-23T00:17:04;21.35;;;11.70;;
79135;SDS011;68533;51.090;17.216;2023-04-23T00:19:33;21.42;;;12.95;;
79135;SDS011;68533;51.090;17.216;2023-04-23T00:21:59;24.45;;;12.88;;
79135;SDS011;68533;51.090;17.216;2023-04-23T00:24:25;28.35;;;14.32;;
79135;SDS011;68533;51.090;17.216;2023-04-23T00:26:51;28.45;;;13.93;;
79135;SDS011;68533;51.090;17.216;2023-04-23T00:29:18;22.63;;;12.13;;
79135;SDS011;68533;51.090;17.216;2023-04-23T00:31:44;23.50;;;12.75;;
79135;SDS011;68533;51.090;17.216;2023-04-23T00:34:10;24.83;;;12.63;;
79135;SDS011;68533;51.090;17.216;2023-04-23T00:36:36;23.52;;;12.27;;
79135;SDS011;68533;51.090;17.216;2023-04-23T00:39:02;26.02;;;12.68;;
79135;SDS011;68533;51.090;17.216;2023-04-23T00:41:28;25.02;;;12.50;;
79135;SDS011;68533;51.090;17.216;2023-04-23T00:43:54;24.02;;;12.90;;
79135;SDS011;68533;51.090;17.216;2023-04-23T00:46:22;27.98;;;13.35;;
79135;SDS011;68533;51.090;17.216;2023-04-23T00:48:52;29.67;;;12.77;;
79135;SDS011;68533;51.090;17.216;2023-04-23T00:51:20;28.80;;;14.00;;
79135;SDS011;68533;51.090;17.216;2023-04-23T00:53:47;22.15;;;11.77;;
79135;SDS011;68533;51.090;17.216;2023-04-23T00:56:13;23.00;;;11.70;;
79135;SDS011;68533;51.090;17.216;2023-04-23T00:58:40;20.45;;;11.75;;
79135;SDS011;68533;51.090;17.216;2023-04-23T01:03:41;22.27;;;11.75;;
79135;SDS011;68533;51.090;17.216;2023-04-23T01:06:07;21.75;;;12.00;;
79135;SDS011;68533;51.090;17.216;2023-04-23T01:08:33;30.02;;;12.85;;
79135;SDS011;68533;51.090;17.216;2023-04-23T01:11:01;34.92;;;13.10;;
79135;SDS011;68533;51.090;17.216;2023-04-23T01:13:28;26.23;;;13.63;;
79135;SDS011;68533;51.090;17.216;2023-04-23T01:15:55;26.02;;;13.55;;
79135;SDS011;68533;51.090;17.216;2023-04-23T01:18:21;24.55;;;12.98;;
79135;SDS011;68533;51.090;17.216;2023-04-23T01:20:47;24.60;;;12.40;;
79135;SDS011;68533;51.090;17.216;2023-04-23T01:23:14;20.02;;;11.60;;
79135;SDS011;68533;51.090;17.216;2023-04-23T01:25:41;20.73;;;11.13;;
79135;SDS011;68533;51.090;17.216;2023-04-23T01:28:07;22.63;;;11.88;;
79135;SDS011;68533;51.090;17.216;2023-04-23T01:30:34;23.75;;;12.23;;
79135;SDS011;68533;51.090;17.216;2023-04-23T01:33:00;25.67;;;12.63;;
79135;SDS011;68533;51.090;17.216;2023-04-23T01:35:27;25.90;;;12.73;;
79135;SDS011;68533;51.090;17.216;2023-04-23T01:37:54;21.98;;;11.52;;
79135;SDS011;68533;51.090;17.216;2023-04-23T01:40:21;21.02;;;11.75;;
79135;SDS011;68533;51.090;17.216;2023-04-23T01:42:48;22.42;;;12.13;;
79135;SDS011;68533;51.090;17.216;2023-04-23T01:45:15;23.60;;;13.20;;
79135;SDS011;68533;51.090;17.216;2023-04-23T01:50:11;21.77;;;11.50;;
79135;SDS011;68533;51.090;17.216;2023-04-23T01:52:36;25.98;;;13.93;;
79135;SDS011;68533;51.090;17.216;2023-04-23T01:55:03;20.60;;;11.20;;
79135;SDS011;68533;51.090;17.216;2023-04-23T01:57:29;27.45;;;12.95;;
79135;SDS011;68533;51.090;17.216;2023-04-23T01:59:56;25.50;;;12.98;;
79135;SDS011;68533;51.090;17.216;2023-04-23T02:02:36;24.95;;;13.55;;
79135;SDS011;68533;51.090;17.216;2023-04-23T02:05:03;25.10;;;12.60;;
79135;SDS011;68533;51.090;17.216;2023-04-23T02:07:34;23.17;;;12.18;;
79135;SDS011;68533;51.090;17.216;2023-04-23T02:10:01;25.80;;;13.77;;
79135;SDS011;68533;51.090;17.216;2023-04-23T02:12:28;25.42;;;13.65;;
79135;SDS011;68533;51.090;17.216;2023-04-23T02:14:54;25.60;;;13.23;;
79135;SDS011;68533;51.090;17.216;2023-04-23T02:17:20;32.00;;;13.73;;
79135;SDS011;68533;51.090;17.216;2023-04-23T02:19:48;25.00;;;12.45;;
79135;SDS011;68533;51.090;17.216;2023-04-23T02:22:14;23.48;;;13.05;;
79135;SDS011;68533;51.090;17.216;2023-04-23T02:24:42;27.35;;;12.25;;
79135;SDS011;68533;51.090;17.216;2023-04-23T02:27:08;21.58;;;11.90;;
79135;SDS011;68533;51.090;17.216;2023-04-23T02:29:35;24.27;;;13.23;;
79135;SDS011;68533;51.090;17.216;2023-04-23T02:32:01;27.55;;;14.95;;
79135;SDS011;68533;51.090;17.216;2023-04-23T02:34:28;27.85;;;13.88;;
79135;SDS011;68533;51.090;17.216;2023-04-23T02:36:54;25.60;;;13.85;;
79135;SDS011;68533;51.090;17.216;2023-04-23T02:39:21;27.58;;;13.73;;
79135;SDS011;68533;51.090;17.216;2023-04-23T02:41:46;24.30;;;12.07;;
79135;SDS011;68533;51.090;17.216;2023-04-23T02:44:12;22.45;;;13.10;;
79135;SDS011;68533;51.090;17.216;2023-04-23T02:46:38;23.63;;;12.07;;
79135;SDS011;68533;51.090;17.216;2023-04-23T02:49:04;23.38;;;13.13;;
79135;SDS011;68533;51.090;17.216;2023-04-23T02:51:31;22.90;;;13.02;;
79135;SDS011;68533;51.090;17.216;2023-04-23T02:53:57;24.17;;;12.18;;
79135;SDS011;68533;51.090;17.216;2023-04-23T02:56:23;25.52;;;13.05;;
79135;SDS011;68533;51.090;17.216;2023-04-23T02:58:50;24.73;;;12.52;;
79135;SDS011;68533;51.090;17.216;2023-04-23T03:01:16;26.60;;;14.13;;
79135;SDS011;68533;51.090;17.216;2023-04-23T03:03:42;23.85;;;12.18;;
79135;SDS011;68533;51.090;17.216;2023-04-23T03:06:10;25.67;;;12.02;;
79135;SDS011;68533;51.090;17.216;2023-04-23T03:11:07;24.25;;;10.88;;
79135;SDS011;68533;51.090;17.216;2023-04-23T03:13:36;16.58;;;10.32;;
79135;SDS011;68533;51.090;17.216;2023-04-23T03:16:02;21.55;;;12.10;;
79135;SDS011;68533;51.090;17.216;2023-04-23T03:18:28;29.33;;;13.32;;
79135;SDS011;68533;51.090;17.216;2023-04-23T03:20:54;25.60;;;12.13;;
79135;SDS011;68533;51.090;17.216;2023-04-23T03:23:23;23.15;;;12.90;;
79135;SDS011;68533;51.090;17.216;2023-04-23T03:25:49;27.77;;;13.98;;
79135;SDS011;68533;51.090;17.216;2023-04-23T03:30:46;24.00;;;12.43;;
79135;SDS011;68533;51.090;17.216;2023-04-23T03:33:16;21.00;;;12.93;;
79135;SDS011;68533;51.090;17.216;2023-04-23T03:35:48;25.80;;;13.98;;
79135;SDS011;68533;51.090;17.216;2023-04-23T03:38:14;26.50;;;13.38;;
79135;SDS011;68533;51.090;17.216;2023-04-23T03:40:40;20.13;;;12.43;;
79135;SDS011;68533;51.090;17.216;2023-04-23T03:43:06;29.52;;;13.68;;
79135;SDS011;68533;51.090;17.216;2023-04-23T03:45:32;22.60;;;13.25;;
79135;SDS011;68533;51.090;17.216;2023-04-23T03:47:58;22.02;;;12.93;;
79135;SDS011;68533;51.090;17.216;2023-04-23T03:50:24;27.73;;;13.98;;
79135;SDS011;68533;51.090;17.216;2023-04-23T03:52:51;22.90;;;13.00;;
79135;SDS011;68533;51.090;17.216;2023-04-23T03:55:19;23.35;;;13.93;;
79135;SDS011;68533;51.090;17.216;2023-04-23T03:57:48;25.90;;;12.88;;
79135;SDS011;68533;51.090;17.216;2023-04-23T04:00:17;24.88;;;13.70;;
79135;SDS011;68533;51.090;17.216;2023-04-23T04:02:46;27.42;;;15.02;;
79135;SDS011;68533;51.090;17.216;2023-04-23T04:05:12;28.63;;;14.57;;
79135;SDS011;68533;51.090;17.216;2023-04-23T04:07:38;28.08;;;15.30;;
79135;SDS011;68533;51.090;17.216;2023-04-23T04:10:05;29.27;;;16.10;;
79135;SDS011;68533;51.090;17.216;2023-04-23T04:12:33;27.70;;;15.55;;
79135;SDS011;68533;51.090;17.216;2023-04-23T04:15:04;23.20;;;13.15;;
79135;SDS011;68533;51.090;17.216;2023-04-23T04:17:33;26.90;;;13.75;;
79135;SDS011;68533;51.090;17.216;2023-04-23T04:19:59;24.08;;;13.88;;
79135;SDS011;68533;51.090;17.216;2023-04-23T04:22:25;25.98;;;14.30;;
79135;SDS011;68533;51.090;17.216;2023-04-23T04:24:51;23.83;;;13.65;;
79135;SDS011;68533;51.090;17.216;2023-04-23T04:27:20;27.90;;;12.88;;
79135;SDS011;68533;51.090;17.216;2023-04-23T04:29:49;23.17;;;13.50;;
79135;SDS011;68533;51.090;17.216;2023-04-23T04:32:16;24.70;;;14.15;;
79135;SDS011;68533;51.090;17.216;2023-04-23T04:34:43;27.63;;;12.63;;
79135;SDS011;68533;51.090;17.216;2023-04-23T04:37:09;29.60;;;13.77;;
79135;SDS011;68533;51.090;17.216;2023-04-23T04:39:35;26.70;;;14.32;;
79135;SDS011;68533;51.090;17.216;2023-04-23T04:42:02;24.67;;;14.18;;
79135;SDS011;68533;51.090;17.216;2023-04-23T04:44:30;26.42;;;13.45;;
79135;SDS011;68533;51.090;17.216;2023-04-23T04:46:58;28.98;;;15.00;;
79135;SDS011;68533;51.090;17.216;2023-04-23T04:49:24;26.67;;;15.00;;
79135;SDS011;68533;51.090;17.216;2023-04-23T04:51:50;22.50;;;13.43;;
79135;SDS011;68533;51.090;17.216;2023-04-23T04:54:18;28.33;;;13.27;;
79135;SDS011;68533;51.090;17.216;2023-04-23T04:56:45;30.17;;;14.63;;
79135;SDS011;68533;51.090;17.216;2023-04-23T04:59:11;24.08;;;13.55;;
79135;SDS011;68533;51.090;17.216;2023-04-23T05:01:40;24.15;;;13.25;;
79135;SDS011;68533;51.090;17.216;2023-04-23T05:04:06;26.73;;;13.90;;
79135;SDS011;68533;51.090;17.216;2023-04-23T05:06:32;23.02;;;13.73;;
79135;SDS011;68533;51.090;17.216;2023-04-23T05:08:58;25.92;;;14.90;;
79135;SDS011;68533;51.090;17.216;2023-04-23T05:11:25;22.17;;;12.73;;
79135;SDS011;68533;51.090;17.216;2023-04-23T05:13:55;28.70;;;14.32;;
79135;SDS011;68533;51.090;17.216;2023-04-23T05:16:22;30.70;;;13.27;;
79135;SDS011;68533;51.090;17.216;2023-04-23T05:18:50;23.23;;;13.07;;
79135;SDS011;68533;51.090;17.216;2023-04-23T05:21:16;21.48;;;12.02;;
79135;SDS011;68533;51.090;17.216;2023-04-23T05:23:45;22.67;;;12.75;;
79135;SDS011;68533;51.090;17.216;2023-04-23T05:26:14;26.60;;;13.18;;
79135;SDS011;68533;51.090;17.216;2023-04-23T05:28:40;27.13;;;14.73;;
79135;SDS011;68533;51.090;17.216;2023-04-23T05:31:07;26.95;;;14.68;;
79135;SDS011;68533;51.090;17.216;2023-04-23T05:33:33;24.77;;;11.10;;
79135;SDS011;68533;51.090;17.216;2023-04-23T05:36:04;20.05;;;11.88;;
79135;SDS011;68533;51.090;17.216;2023-04-23T05:38:32;21.70;;;10.10;;
79135;SDS011;68533;51.090;17.216;2023-04-23T05:41:00;20.45;;;11.43;;
79135;SDS011;68533;51.090;17.216;2023-04-23T05:43:27;17.67;;;11.23;;
79135;SDS011;68533;51.090;17.216;2023-04-23T05:45:59;21.63;;;10.55;;
79135;SDS011;68533;51.090;17.216;2023-04-23T05:48:25;23.75;;;11.98;;
79135;SDS011;68533;51.090;17.216;2023-04-23T05:50:59;19.63;;;11.05;;
79135;SDS011;68533;51.090;17.216;2023-04-23T05:53:28;20.85;;;10.18;;
79135;SDS011;68533;51.090;17.216;2023-04-23T05:56:05;20.63;;;11.30;;
79135;SDS011;68533;51.090;17.216;2023-04-23T05:58:30;15.00;;;7.95;;
79135;SDS011;68533;51.090;17.216;2023-04-23T06:03:31;18.88;;;10.23;;
79135;SDS011;68533;51.090;17.216;2023-04-23T06:05:58;19.35;;;11.75;;
79135;SDS011;68533;51.090;17.216;2023-04-23T06:08:24;17.38;;;10.05;;
79135;SDS011;68533;51.090;17.216;2023-04-23T06:13:28;17.13;;;9.60;;
79135;SDS011;68533;51.090;17.216;2023-04-23T06:15:56;16.35;;;8.70;;
79135;SDS011;68533;51.090;17.216;2023-04-23T06:18:28;16.23;;;8.93;;
79135;SDS011;68533;51.090;17.216;2023-04-23T06:20:54;16.00;;;8.88;;
79135;SDS011;68533;51.090;17.216;2023-04-23T06:23:29;15.43;;;8.40;;
79135;SDS011;68533;51.090;17.216;2023-04-23T06:25:59;15.80;;;8.32;;
79135;SDS011;68533;51.090;17.216;2023-04-23T06:28:25;16.10;;;9.85;;
79135;SDS011;68533;51.090;17.216;2023-04-23T06:30:56;14.43;;;8.32;;
79135;SDS011;68533;51.090;17.216;2023-04-23T06:33:22;14.02;;;8.23;;
79135;SDS011;68533;51.090;17.216;2023-04-23T06:35:49;15.75;;;7.53;;
79135;SDS011;68533;51.090;17.216;2023-04-23T06:38:19;14.93;;;7.75;;
79135;SDS011;68533;51.090;17.216;2023-04-23T06:40:51;12.00;;;7.43;;
79135;SDS011;68533;51.090;17.216;2023-04-23T06:43:17;12.45;;;7.43;;
79135;SDS011;68533;51.090;17.216;2023-04-23T06:45:46;13.00;;;7.40;;
79135;SDS011;68533;51.090;17.216;2023-04-23T06:48:37;16.20;;;7.88;;
79135;SDS011;68533;51.090;17.216;2023-04-23T06:51:05;11.98;;;7.57;;
79135;SDS011;68533;51.090;17.216;2023-04-23T06:53:31;15.02;;;9.25;;
79135;SDS011;68533;51.090;17.216;2023-04-23T06:55:57;16.75;;;7.80;;
79135;SDS011;68533;51.090;17.216;2023-04-23T06:58:26;15.38;;;9.13;;
79135;SDS011;68533;51.090;17.216;2023-04-23T07:00:56;12.88;;;7.93;;
79135;SDS011;68533;51.090;17.216;2023-04-23T07:03:28;11.52;;;7.20;;
79135;SDS011;68533;51.090;17.216;2023-04-23T07:06:00;14.43;;;7.78;;
79135;SDS011;68533;51.090;17.216;2023-04-23T07:08:31;11.70;;;6.80;;
79135;SDS011;68533;51.090;17.216;2023-04-23T07:10:58;12.85;;;7.25;;
79135;SDS011;68533;51.090;17.216;2023-04-23T07:13:24;12.27;;;7.50;;
79135;SDS011;68533;51.090;17.216;2023-04-23T07:15:50;8.77;;;6.22;;
79135;SDS011;68533;51.090;17.216;2023-04-23T07:18:19;9.70;;;5.97;;
79135;SDS011;68533;51.090;17.216;2023-04-23T07:20:45;10.15;;;6.47;;
79135;SDS011;68533;51.090;17.216;2023-04-23T07:23:11;11.27;;;7.35;;
79135;SDS011;68533;51.090;17.216;2023-04-23T07:25:37;9.73;;;5.93;;
79135;SDS011;68533;51.090;17.216;2023-04-23T07:28:03;8.52;;;5.72;;
79135;SDS011;68533;51.090;17.216;2023-04-23T07:30:31;9.63;;;6.03;;
79135;SDS011;68533;51.090;17.216;2023-04-23T07:32:57;9.85;;;6.20;;
79135;SDS011;68533;51.090;17.216;2023-04-23T07:35:27;7.43;;;5.10;;
79135;SDS011;68533;51.090;17.216;2023-04-23T07:37:53;10.70;;;5.40;;
79135;SDS011;68533;51.090;17.216;2023-04-23T07:40:20;7.55;;;5.45;;
79135;SDS011;68533;51.090;17.216;2023-04-23T07:42:47;8.05;;;5.72;;
79135;SDS011;68533;51.090;17.216;2023-04-23T07:45:14;9.80;;;5.32;;
79135;SDS011;68533;51.090;17.216;2023-04-23T07:47:40;13.00;;;6.22;;
79135;SDS011;68533;51.090;17.216;2023-04-23T07:50:06;9.30;;;5.20;;
79135;SDS011;68533;51.090;17.216;2023-04-23T07:52:32;8.75;;;5.13;;
79135;SDS011;68533;51.090;17.216;2023-04-23T07:54:58;8.20;;;4.25;;
79135;SDS011;68533;51.090;17.216;2023-04-23T07:57:24;8.45;;;4.85;;
79135;SDS011;68533;51.090;17.216;2023-04-23T07:59:51;9.40;;;4.60;;
79135;SDS011;68533;51.090;17.216;2023-04-23T08:02:17;6.60;;;4.25;;
79135;SDS011;68533;51.090;17.216;2023-04-23T08:04:48;6.10;;;4.13;;
79135;SDS011;68533;51.090;17.216;2023-04-23T08:07:17;5.75;;;4.05;;
79135;SDS011;68533;51.090;17.216;2023-04-23T08:09:43;7.55;;;4.43;;
79135;SDS011;68533;51.090;17.216;2023-04-23T08:12:09;6.63;;;4.65;;
79135;SDS011;68533;51.090;17.216;2023-04-23T08:14:36;9.57;;;4.03;;
79135;SDS011;68533;51.090;17.216;2023-04-23T08:17:05;8.00;;;5.53;;
79135;SDS011;68533;51.090;17.216;2023-04-23T08:19:31;5.55;;;4.25;;
79135;SDS011;68533;51.090;17.216;2023-04-23T08:22:02;6.07;;;4.50;;
79135;SDS011;68533;51.090;17.216;2023-04-23T08:24:29;10.23;;;5.07;;
79135;SDS011;68533;51.090;17.216;2023-04-23T08:26:57;11.45;;;4.55;;
79135;SDS011;68533;51.090;17.216;2023-04-23T08:29:23;8.00;;;4.85;;
79135;SDS011;68533;51.090;17.216;2023-04-23T08:31:49;6.68;;;3.67;;
79135;SDS011;68533;51.090;17.216;2023-04-23T08:34:16;8.70;;;3.75;;
79135;SDS011;68533;51.090;17.216;2023-04-23T08:36:42;7.18;;;3.95;;
79135;SDS011;68533;51.090;17.216;2023-04-23T08:39:08;6.80;;;3.55;;
79135;SDS011;68533;51.090;17.216;2023-04-23T08:41:39;7.05;;;3.58;;
79135;SDS011;68533;51.090;17.216;2023-04-23T08:46:50;8.07;;;3.78;;
79135;SDS011;68533;51.090;17.216;2023-04-23T08:49:18;7.53;;;4.60;;
79135;SDS011;68533;51.090;17.216;2023-04-23T08:51:54;4.90;;;3.63;;
79135;SDS011;68533;51.090;17.216;2023-04-23T08:54:25;7.63;;;4.13;;
79135;SDS011;68533;51.090;17.216;2023-04-23T08:56:55;8.38;;;3.95;;
79135;SDS011;68533;51.090;17.216;2023-04-23T09:01:54;5.47;;;3.72;;
79135;SDS011;68533;51.090;17.216;2023-04-23T09:04:21;5.95;;;3.65;;
79135;SDS011;68533;51.090;17.216;2023-04-23T09:06:49;8.27;;;3.63;;
79135;SDS011;68533;51.090;17.216;2023-04-23T09:09:15;5.28;;;3.55;;
79135;SDS011;68533;51.090;17.216;2023-04-23T09:11:44;8.60;;;4.00;;
79135;SDS011;68533;51.090;17.216;2023-04-23T09:14:13;5.25;;;4.18;;
79135;SDS011;68533;51.090;17.216;2023-04-23T09:16:39;7.07;;;4.18;;
79135;SDS011;68533;51.090;17.216;2023-04-23T09:19:09;7.10;;;3.55;;
79135;SDS011;68533;51.090;17.216;2023-04-23T09:21:36;7.15;;;3.47;;
79135;SDS011;68533;51.090;17.216;2023-04-23T09:24:08;4.53;;;3.17;;
79135;SDS011;68533;51.090;17.216;2023-04-23T09:26:36;6.07;;;3.42;;
79135;SDS011;68533;51.090;17.216;2023-04-23T09:29:14;5.30;;;2.90;;
79135;SDS011;68533;51.090;17.216;2023-04-23T09:31:47;7.30;;;3.30;;
79135;SDS011;68533;51.090;17.216;2023-04-23T09:34:15;6.82;;;3.50;;
79135;SDS011;68533;51.090;17.216;2023-04-23T09:36:46;4.75;;;3.13;;
79135;SDS011;68533;51.090;17.216;2023-04-23T09:39:17;6.13;;;3.83;;
79135;SDS011;68533;51.090;17.216;2023-04-23T09:41:46;7.00;;;3.80;;
79135;SDS011;68533;51.090;17.216;2023-04-23T09:44:19;5.15;;;2.95;;
79135;SDS011;68533;51.090;17.216;2023-04-23T09:46:51;4.78;;;3.63;;
79135;SDS011;68533;51.090;17.216;2023-04-23T09:49:20;5.38;;;3.30;;
79135;SDS011;68533;51.090;17.216;2023-04-23T09:51:46;5.43;;;3.28;;
79135;SDS011;68533;51.090;17.216;2023-04-23T09:54:16;5.38;;;3.20;;
79135;SDS011;68533;51.090;17.216;2023-04-23T09:56:57;8.48;;;3.55;;
79135;SDS011;68533;51.090;17.216;2023-04-23T09:59:27;4.85;;;3.15;;
79135;SDS011;68533;51.090;17.216;2023-04-23T10:01:55;8.40;;;3.78;;
79135;SDS011;68533;51.090;17.216;2023-04-23T10:04:22;5.65;;;4.00;;
79135;SDS011;68533;51.090;17.216;2023-04-23T10:06:54;8.43;;;4.45;;
79135;SDS011;68533;51.090;17.216;2023-04-23T10:09:22;4.50;;;3.80;;
79135;SDS011;68533;51.090;17.216;2023-04-23T10:11:56;4.53;;;2.95;;
79135;SDS011;68533;51.090;17.216;2023-04-23T10:14:24;6.53;;;3.53;;
79135;SDS011;68533;51.090;17.216;2023-04-23T10:16:57;4.30;;;3.13;;
79135;SDS011;68533;51.090;17.216;2023-04-23T10:19:25;5.13;;;3.38;;
79135;SDS011;68533;51.090;17.216;2023-04-23T10:22:00;9.13;;;3.70;;
79135;SDS011;68533;51.090;17.216;2023-04-23T10:24:33;9.68;;;3.80;;
79135;SDS011;68533;51.090;17.216;2023-04-23T10:27:03;5.35;;;3.20;;
79135;SDS011;68533;51.090;17.216;2023-04-23T10:29:33;4.70;;;3.22;;
79135;SDS011;68533;51.090;17.216;2023-04-23T10:32:01;4.43;;;3.58;;
79135;SDS011;68533;51.090;17.216;2023-04-23T10:34:29;5.40;;;3.17;;
79135;SDS011;68533;51.090;17.216;2023-04-23T10:36:56;5.72;;;2.92;;
79135;SDS011;68533;51.090;17.216;2023-04-23T10:39:25;5.70;;;2.97;;
79135;SDS011;68533;51.090;17.216;2023-04-23T10:41:53;9.35;;;3.33;;
79135;SDS011;68533;51.090;17.216;2023-04-23T10:44:20;7.53;;;3.20;;
79135;SDS011;68533;51.090;17.216;2023-04-23T10:46:53;3.97;;;2.83;;
79135;SDS011;68533;51.090;17.216;2023-04-23T10:49:28;8.55;;;3.17;;
79135;SDS011;68533;51.090;17.216;2023-04-23T10:51:58;3.72;;;2.35;;
79135;SDS011;68533;51.090;17.216;2023-04-23T10:54:33;3.53;;;2.47;;
79135;SDS011;68533;51.090;17.216;2023-04-23T10:57:03;5.43;;;2.90;;
79135;SDS011;68533;51.090;17.216;2023-04-23T10:59:31;4.57;;;3.20;;
79135;SDS011;68533;51.090;17.216;2023-04-23T11:04:56;3.72;;;2.63;;
79135;SDS011;68533;51.090;17.216;2023-04-23T11:07:31;4.47;;;2.63;;
79135;SDS011;68533;51.090;17.216;2023-04-23T11:09:59;6.03;;;3.00;;
79135;SDS011;68533;51.090;17.216;2023-04-23T11:12:35;6.13;;;3.30;;
79135;SDS011;68533;51.090;17.216;2023-04-23T11:15:11;8.65;;;3.72;;
79135;SDS011;68533;51.090;17.216;2023-04-23T11:20:26;5.53;;;3.10;;
79135;SDS011;68533;51.090;17.216;2023-04-23T11:22:52;5.53;;;3.65;;
79135;SDS011;68533;51.090;17.216;2023-04-23T11:25:25;8.73;;;3.20;;
79135;SDS011;68533;51.090;17.216;2023-04-23T11:27:53;7.05;;;3.28;;
79135;SDS011;68533;51.090;17.216;2023-04-23T11:30:21;4.75;;;2.97;;
79135;SDS011;68533;51.090;17.216;2023-04-23T11:35:16;11.30;;;3.55;;
79135;SDS011;68533;51.090;17.216;2023-04-23T11:37:43;5.05;;;3.50;;
79135;SDS011;68533;51.090;17.216;2023-04-23T11:40:11;4.38;;;2.97;;
79135;SDS011;68533;51.090;17.216;2023-04-23T11:42:42;4.60;;;2.92;;
79135;SDS011;68533;51.090;17.216;2023-04-23T11:45:17;4.93;;;3.28;;
79135;SDS011;68533;51.090;17.216;2023-04-23T11:47:45;4.32;;;2.75;;
79135;SDS011;68533;51.090;17.216;2023-04-23T11:50:19;5.97;;;2.58;;
79135;SDS011;68533;51.090;17.216;2023-04-23T11:52:47;4.72;;;3.22;;
79135;SDS011;68533;51.090;17.216;2023-04-23T11:55:14;6.07;;;3.65;;
79135;SDS011;68533;51.090;17.216;2023-04-23T11:57:44;7.55;;;3.42;;
79135;SDS011;68533;51.090;17.216;2023-04-23T12:02:54;4.18;;;3.10;;
79135;SDS011;68533;51.090;17.216;2023-04-23T12:05:26;10.23;;;4.03;;
79135;SDS011;68533;51.090;17.216;2023-04-23T12:08:04;5.90;;;3.10;;
79135;SDS011;68533;51.090;17.216;2023-04-23T12:10:51;4.80;;;2.90;;
79135;SDS011;68533;51.090;17.216;2023-04-23T12:13:22;5.00;;;3.00;;
79135;SDS011;68533;51.090;17.216;2023-04-23T12:16:04;7.10;;;3.05;;
79135;SDS011;68533;51.090;17.216;2023-04-23T12:18:34;6.28;;;3.17;;
79135;SDS011;68533;51.090;17.216;2023-04-23T12:21:05;4.15;;;3.00;;
79135;SDS011;68533;51.090;17.216;2023-04-23T12:23:35;7.00;;;3.20;;
79135;SDS011;68533;51.090;17.216;2023-04-23T12:26:10;13.48;;;3.20;;
79135;SDS011;68533;51.090;17.216;2023-04-23T12:29:11;3.13;;;2.42;;
79135;SDS011;68533;51.090;17.216;2023-04-23T12:31:32;4.47;;;2.22;;
79135;SDS011;68533;51.090;17.216;2023-04-23T12:36:32;3.55;;;2.38;;
79135;SDS011;68533;51.090;17.216;2023-04-23T12:41:44;8.38;;;2.70;;
79135;SDS011;68533;51.090;17.216;2023-04-23T12:44:10;9.85;;;2.83;;
79135;SDS011;68533;51.090;17.216;2023-04-23T12:46:38;12.48;;;3.10;;
79135;SDS011;68533;51.090;17.216;2023-04-23T12:49:03;3.60;;;2.03;;
79135;SDS011;68533;51.090;17.216;2023-04-23T12:51:30;4.72;;;2.10;;
79135;SDS011;68533;51.090;17.216;2023-04-23T12:53:59;3.40;;;1.98;;
79135;SDS011;68533;51.090;17.216;2023-04-23T12:56:26;7.65;;;2.97;;
79135;SDS011;68533;51.090;17.216;2023-04-23T12:58:51;5.40;;;2.40;;
79135;SDS011;68533;51.090;17.216;2023-04-23T13:01:18;4.55;;;2.72;;
79135;SDS011;68533;51.090;17.216;2023-04-23T13:03:43;3.38;;;2.92;;
79135;SDS011;68533;51.090;17.216;2023-04-23T13:06:10;5.95;;;2.58;;
79135;SDS011;68533;51.090;17.216;2023-04-23T13:08:36;7.40;;;3.10;;
79135;SDS011;68533;51.090;17.216;2023-04-23T13:11:04;7.20;;;2.90;;
79135;SDS011;68533;51.090;17.216;2023-04-23T13:13:30;5.07;;;2.22;;
79135;SDS011;68533;51.090;17.216;2023-04-23T13:15:59;24.45;;;4.65;;
79135;SDS011;68533;51.090;17.216;2023-04-23T13:20:51;5.00;;;2.78;;
79135;SDS011;68533;51.090;17.216;2023-04-23T13:23:19;5.57;;;2.55;;
79135;SDS011;68533;51.090;17.216;2023-04-23T13:25:45;4.15;;;2.33;;
79135;SDS011;68533;51.090;17.216;2023-04-23T13:28:11;3.63;;;2.53;;
79135;SDS011;68533;51.090;17.216;2023-04-23T13:30:38;5.25;;;2.78;;
79135;SDS011;68533;51.090;17.216;2023-04-23T13:33:03;4.38;;;2.95;;
79135;SDS011;68533;51.090;17.216;2023-04-23T13:35:29;8.38;;;3.60;;
79135;SDS011;68533;51.090;17.216;2023-04-23T13:37:55;6.97;;;2.80;;
79135;SDS011;68533;51.090;17.216;2023-04-23T13:40:21;9.70;;;2.63;;
79135;SDS011;68533;51.090;17.216;2023-04-23T13:42:47;3.75;;;2.28;;
79135;SDS011;68533;51.090;17.216;2023-04-23T13:45:15;7.53;;;2.35;;
79135;SDS011;68533;51.090;17.216;2023-04-23T13:47:41;2.97;;;1.83;;
79135;SDS011;68533;51.090;17.216;2023-04-23T13:50:07;2.63;;;1.60;;
79135;SDS011;68533;51.090;17.216;2023-04-23T13:52:34;3.13;;;2.15;;
79135;SDS011;68533;51.090;17.216;2023-04-23T13:55:03;5.07;;;2.10;;
79135;SDS011;68533;51.090;17.216;2023-04-23T13:57:29;2.15;;;1.48;;
79135;SDS011;68533;51.090;17.216;2023-04-23T13:59:55;3.78;;;1.70;;
79135;SDS011;68533;51.090;17.216;2023-04-23T14:02:25;2.83;;;1.50;;
79135;SDS011;68533;51.090;17.216;2023-04-23T14:04:55;4.40;;;1.75;;
79135;SDS011;68533;51.090;17.216;2023-04-23T14:07:21;4.05;;;1.67;;
79135;SDS011;68533;51.090;17.216;2023-04-23T14:09:48;4.50;;;2.20;;
79135;SDS011;68533;51.090;17.216;2023-04-23T14:12:19;3.10;;;1.60;;
79135;SDS011;68533;51.090;17.216;2023-04-23T14:14:46;7.70;;;2.00;;
79135;SDS011;68533;51.090;17.216;2023-04-23T14:17:12;12.45;;;2.42;;
79135;SDS011;68533;51.090;17.216;2023-04-23T14:19:38;6.63;;;2.20;;
79135;SDS011;68533;51.090;17.216;2023-04-23T14:22:04;9.00;;;1.83;;
79135;SDS011;68533;51.090;17.216;2023-04-23T14:24:37;3.15;;;1.98;;
79135;SDS011;68533;51.090;17.216;2023-04-23T14:27:08;2.83;;;2.08;;
79135;SDS011;68533;51.090;17.216;2023-04-23T14:29:50;5.03;;;2.33;;
79135;SDS011;68533;51.090;17.216;2023-04-23T14:32:22;4.53;;;2.35;;
79135;SDS011;68533;51.090;17.216;2023-04-23T14:34:49;3.58;;;2.08;;
79135;SDS011;68533;51.090;17.216;2023-04-23T14:37:15;4.88;;;1.77;;
79135;SDS011;68533;51.090;17.216;2023-04-23T14:39:42;4.20;;;2.28;;
79135;SDS011;68533;51.090;17.216;2023-04-23T14:42:08;4.95;;;3.00;;
79135;SDS011;68533;51.090;17.216;2023-04-23T14:44:34;5.15;;;2.42;;
79135;SDS011;68533;51.090;17.216;2023-04-23T14:47:00;5.00;;;2.20;;
79135;SDS011;68533;51.090;17.216;2023-04-23T14:49:26;4.68;;;2.30;;
79135;SDS011;68533;51.090;17.216;2023-04-23T14:51:53;3.80;;;2.33;;
79135;SDS011;68533;51.090;17.216;2023-04-23T14:54:19;3.75;;;2.08;;
79135;SDS011;68533;51.090;17.216;2023-04-23T14:56:46;6.18;;;2.28;;
79135;SDS011;68533;51.090;17.216;2023-04-23T14:59:12;4.55;;;2.10;;
79135;SDS011;68533;51.090;17.216;2023-04-23T15:01:41;3.67;;;2.67;;
79135;SDS011;68533;51.090;17.216;2023-04-23T15:04:09;3.47;;;1.88;;
79135;SDS011;68533;51.090;17.216;2023-04-23T15:06:36;3.97;;;2.70;;
79135;SDS011;68533;51.090;17.216;2023-04-23T15:09:06;2.67;;;2.10;;